sensor_id;sensor_type;location;lat;lon;timestamp;P1;durP1;ratioP1;P2;durP2;ratioP2
75165;SDS011;63747;48.042;10.088;2022-10-18T00:00:14;11.38;;;4.30;;
75165;SDS011;63747;48.042;10.088;2022-10-18T00:03:15;8.02;;;4.28;;
75165;SDS011;63747;48.042;10.088;2022-10-18T00:06:15;7.25;;;4.35;;
75165;SDS011;63747;48.042;10.088;2022-10-18T00:09:16;6.53;;;4.23;;
75165;SDS011;63747;48.042;10.088;2022-10-18T00:12:17;7.63;;;4.43;;
75165;SDS011;63747;48.042;10.088;2022-10-18T00:15:17;11.30;;;4.63;;
75165;SDS011;63747;48.042;10.088;2022-10-18T00:18:18;7.25;;;3.75;;
75165;SDS011;63747;48.042;10.088;2022-10-18T00:21:20;9.90;;;4.20;;
75165;SDS011;63747;48.042;10.088;2022-10-18T00:24:22;8.38;;;4.10;;
75165;SDS011;63747;48.042;10.088;2022-10-18T00:27:23;7.33;;;3.83;;
75165;SDS011;63747;48.042;10.088;2022-10-18T00:30:24;6.28;;;3.30;;
75165;SDS011;63747;48.042;10.088;2022-10-18T00:33:26;5.23;;;3.90;;
75165;SDS011;63747;48.042;10.088;2022-10-18T00:36:27;7.55;;;3.42;;
75165;SDS011;63747;48.042;10.088;2022-10-18T00:39:29;8.30;;;3.85;;
75165;SDS011;63747;48.042;10.088;2022-10-18T00:42:32;10.55;;;4.22;;
75165;SDS011;63747;48.042;10.088;2022-10-18T00:45:35;10.23;;;4.47;;
75165;SDS011;63747;48.042;10.088;2022-10-18T00:48:35;7.57;;;4.63;;
75165;SDS011;63747;48.042;10.088;2022-10-18T00:51:43;5.27;;;4.27;;
75165;SDS011;63747;48.042;10.088;2022-10-18T00:54:47;13.25;;;4.50;;
75165;SDS011;63747;48.042;10.088;2022-10-18T00:57:49;7.35;;;4.05;;
75165;SDS011;63747;48.042;10.088;2022-10-18T01:01:08;6.18;;;4.30;;
75165;SDS011;63747;48.042;10.088;2022-10-18T01:04:09;8.13;;;4.30;;
75165;SDS011;63747;48.042;10.088;2022-10-18T01:07:17;11.80;;;4.78;;
75165;SDS011;63747;48.042;10.088;2022-10-18T01:13:55;12.00;;;4.35;;
75165;SDS011;63747;48.042;10.088;2022-10-18T01:23:41;9.25;;;4.47;;
75165;SDS011;63747;48.042;10.088;2022-10-18T01:34:07;8.95;;;4.70;;
75165;SDS011;63747;48.042;10.088;2022-10-18T01:37:03;8.35;;;4.85;;
75165;SDS011;63747;48.042;10.088;2022-10-18T01:40:08;8.23;;;4.95;;
75165;SDS011;63747;48.042;10.088;2022-10-18T01:43:13;9.45;;;4.88;;
75165;SDS011;63747;48.042;10.088;2022-10-18T01:46:18;10.30;;;5.50;;
75165;SDS011;63747;48.042;10.088;2022-10-18T01:49:23;10.38;;;4.93;;
75165;SDS011;63747;48.042;10.088;2022-10-18T01:52:24;7.50;;;5.07;;
75165;SDS011;63747;48.042;10.088;2022-10-18T01:56:02;9.23;;;5.20;;
75165;SDS011;63747;48.042;10.088;2022-10-18T02:05:37;9.80;;;5.07;;
75165;SDS011;63747;48.042;10.088;2022-10-18T02:08:43;8.45;;;5.32;;
75165;SDS011;63747;48.042;10.088;2022-10-18T02:11:49;7.40;;;5.57;;
75165;SDS011;63747;48.042;10.088;2022-10-18T02:14:54;7.88;;;5.32;;
75165;SDS011;63747;48.042;10.088;2022-10-18T02:17:56;8.30;;;4.47;;
75165;SDS011;63747;48.042;10.088;2022-10-18T02:20:57;14.85;;;5.30;;
75165;SDS011;63747;48.042;10.088;2022-10-18T02:23:59;6.78;;;5.07;;
75165;SDS011;63747;48.042;10.088;2022-10-18T02:27:01;9.45;;;5.20;;
75165;SDS011;63747;48.042;10.088;2022-10-18T02:30:03;9.93;;;4.82;;
75165;SDS011;63747;48.042;10.088;2022-10-18T02:33:23;11.07;;;5.22;;
75165;SDS011;63747;48.042;10.088;2022-10-18T02:39:58;7.68;;;4.95;;
75165;SDS011;63747;48.042;10.088;2022-10-18T02:42:59;9.93;;;4.37;;
75165;SDS011;63747;48.042;10.088;2022-10-18T02:46:00;7.77;;;5.00;;
75165;SDS011;63747;48.042;10.088;2022-10-18T02:49:01;9.73;;;5.32;;
75165;SDS011;63747;48.042;10.088;2022-10-18T02:52:02;9.27;;;5.22;;
75165;SDS011;63747;48.042;10.088;2022-10-18T02:55:05;8.20;;;4.78;;
75165;SDS011;63747;48.042;10.088;2022-10-18T02:58:06;13.18;;;5.78;;
75165;SDS011;63747;48.042;10.088;2022-10-18T03:01:08;11.85;;;5.18;;
75165;SDS011;63747;48.042;10.088;2022-10-18T03:04:08;6.23;;;4.73;;
75165;SDS011;63747;48.042;10.088;2022-10-18T03:07:09;8.30;;;5.15;;
75165;SDS011;63747;48.042;10.088;2022-10-18T03:10:10;14.57;;;5.37;;
75165;SDS011;63747;48.042;10.088;2022-10-18T03:13:11;12.10;;;5.20;;
75165;SDS011;63747;48.042;10.088;2022-10-18T03:16:12;9.05;;;5.35;;
75165;SDS011;63747;48.042;10.088;2022-10-18T03:19:12;7.80;;;5.27;;
75165;SDS011;63747;48.042;10.088;2022-10-18T03:22:13;9.00;;;5.40;;
75165;SDS011;63747;48.042;10.088;2022-10-18T03:25:14;7.10;;;4.80;;
75165;SDS011;63747;48.042;10.088;2022-10-18T03:28:15;11.17;;;4.73;;
75165;SDS011;63747;48.042;10.088;2022-10-18T03:31:15;7.10;;;4.93;;
75165;SDS011;63747;48.042;10.088;2022-10-18T03:34:16;10.83;;;5.73;;
75165;SDS011;63747;48.042;10.088;2022-10-18T03:37:17;9.57;;;5.15;;
75165;SDS011;63747;48.042;10.088;2022-10-18T03:40:18;10.20;;;5.00;;
75165;SDS011;63747;48.042;10.088;2022-10-18T03:46:20;6.57;;;5.17;;
75165;SDS011;63747;48.042;10.088;2022-10-18T03:49:20;8.97;;;5.03;;
75165;SDS011;63747;48.042;10.088;2022-10-18T03:52:21;10.37;;;5.13;;
75165;SDS011;63747;48.042;10.088;2022-10-18T03:55:22;7.20;;;5.33;;
75165;SDS011;63747;48.042;10.088;2022-10-18T03:58:23;9.05;;;5.53;;
75165;SDS011;63747;48.042;10.088;2022-10-18T04:01:24;8.55;;;5.40;;
75165;SDS011;63747;48.042;10.088;2022-10-18T04:04:24;11.33;;;6.23;;
75165;SDS011;63747;48.042;10.088;2022-10-18T04:07:25;13.80;;;5.30;;
75165;SDS011;63747;48.042;10.088;2022-10-18T04:10:26;7.67;;;5.70;;
75165;SDS011;63747;48.042;10.088;2022-10-18T04:13:27;6.22;;;4.93;;
75165;SDS011;63747;48.042;10.088;2022-10-18T04:16:28;9.00;;;5.70;;
75165;SDS011;63747;48.042;10.088;2022-10-18T04:19:29;7.43;;;5.30;;
75165;SDS011;63747;48.042;10.088;2022-10-18T04:22:29;6.22;;;5.18;;
75165;SDS011;63747;48.042;10.088;2022-10-18T04:25:30;11.60;;;5.85;;
75165;SDS011;63747;48.042;10.088;2022-10-18T04:28:32;8.45;;;5.75;;
75165;SDS011;63747;48.042;10.088;2022-10-18T04:31:33;10.93;;;5.70;;
75165;SDS011;63747;48.042;10.088;2022-10-18T04:34:34;9.20;;;5.80;;
75165;SDS011;63747;48.042;10.088;2022-10-18T04:37:35;8.37;;;5.60;;
75165;SDS011;63747;48.042;10.088;2022-10-18T04:40:35;11.17;;;5.60;;
75165;SDS011;63747;48.042;10.088;2022-10-18T04:43:37;10.07;;;6.00;;
75165;SDS011;63747;48.042;10.088;2022-10-18T04:46:37;14.53;;;6.10;;
75165;SDS011;63747;48.042;10.088;2022-10-18T04:49:38;8.97;;;5.63;;
75165;SDS011;63747;48.042;10.088;2022-10-18T04:52:39;11.68;;;5.97;;
75165;SDS011;63747;48.042;10.088;2022-10-18T04:55:42;7.23;;;5.47;;
75165;SDS011;63747;48.042;10.088;2022-10-18T04:58:47;8.52;;;5.38;;
75165;SDS011;63747;48.042;10.088;2022-10-18T05:01:48;9.55;;;5.40;;
75165;SDS011;63747;48.042;10.088;2022-10-18T05:04:49;8.40;;;6.00;;
75165;SDS011;63747;48.042;10.088;2022-10-18T05:07:50;9.02;;;5.80;;
75165;SDS011;63747;48.042;10.088;2022-10-18T05:10:51;6.45;;;5.28;;
75165;SDS011;63747;48.042;10.088;2022-10-18T05:13:52;10.93;;;5.90;;
75165;SDS011;63747;48.042;10.088;2022-10-18T05:16:59;8.57;;;5.53;;
75165;SDS011;63747;48.042;10.088;2022-10-18T05:20:00;9.57;;;5.90;;
75165;SDS011;63747;48.042;10.088;2022-10-18T05:23:01;9.05;;;6.60;;
75165;SDS011;63747;48.042;10.088;2022-10-18T05:26:02;11.50;;;6.87;;
75165;SDS011;63747;48.042;10.088;2022-10-18T05:29:04;8.93;;;6.40;;
75165;SDS011;63747;48.042;10.088;2022-10-18T05:32:05;9.60;;;7.45;;
75165;SDS011;63747;48.042;10.088;2022-10-18T05:35:06;15.23;;;6.40;;
75165;SDS011;63747;48.042;10.088;2022-10-18T05:38:07;12.52;;;6.78;;
75165;SDS011;63747;48.042;10.088;2022-10-18T05:41:08;11.27;;;6.10;;
75165;SDS011;63747;48.042;10.088;2022-10-18T05:44:09;9.35;;;6.15;;
75165;SDS011;63747;48.042;10.088;2022-10-18T05:47:09;9.10;;;5.77;;
75165;SDS011;63747;48.042;10.088;2022-10-18T05:50:10;15.80;;;9.20;;
75165;SDS011;63747;48.042;10.088;2022-10-18T05:53:11;20.52;;;10.35;;
75165;SDS011;63747;48.042;10.088;2022-10-18T05:56:12;18.50;;;9.38;;
75165;SDS011;63747;48.042;10.088;2022-10-18T05:59:13;12.38;;;8.70;;
75165;SDS011;63747;48.042;10.088;2022-10-18T06:02:14;11.38;;;7.40;;
75165;SDS011;63747;48.042;10.088;2022-10-18T06:05:15;14.17;;;6.93;;
75165;SDS011;63747;48.042;10.088;2022-10-18T06:08:15;12.63;;;7.10;;
75165;SDS011;63747;48.042;10.088;2022-10-18T06:11:17;9.77;;;6.60;;
75165;SDS011;63747;48.042;10.088;2022-10-18T06:14:19;9.25;;;5.57;;
75165;SDS011;63747;48.042;10.088;2022-10-18T06:17:20;10.03;;;5.57;;
75165;SDS011;63747;48.042;10.088;2022-10-18T06:20:21;10.77;;;5.60;;
75165;SDS011;63747;48.042;10.088;2022-10-18T06:23:21;12.60;;;5.27;;
75165;SDS011;63747;48.042;10.088;2022-10-18T06:26:22;11.43;;;5.40;;
75165;SDS011;63747;48.042;10.088;2022-10-18T06:29:23;9.63;;;5.15;;
75165;SDS011;63747;48.042;10.088;2022-10-18T06:32:24;13.77;;;6.70;;
75165;SDS011;63747;48.042;10.088;2022-10-18T06:35:25;11.27;;;5.23;;
75165;SDS011;63747;48.042;10.088;2022-10-18T06:38:26;7.82;;;5.00;;
75165;SDS011;63747;48.042;10.088;2022-10-18T06:41:27;9.20;;;5.35;;
75165;SDS011;63747;48.042;10.088;2022-10-18T06:44:28;9.50;;;5.53;;
75165;SDS011;63747;48.042;10.088;2022-10-18T06:47:29;11.82;;;5.00;;
75165;SDS011;63747;48.042;10.088;2022-10-18T06:50:30;7.53;;;4.70;;
75165;SDS011;63747;48.042;10.088;2022-10-18T06:53:32;7.93;;;4.60;;
75165;SDS011;63747;48.042;10.088;2022-10-18T06:56:34;12.55;;;5.03;;
75165;SDS011;63747;48.042;10.088;2022-10-18T07:02:36;9.03;;;4.70;;
75165;SDS011;63747;48.042;10.088;2022-10-18T07:05:40;13.57;;;4.85;;
75165;SDS011;63747;48.042;10.088;2022-10-18T07:08:40;7.97;;;4.30;;
75165;SDS011;63747;48.042;10.088;2022-10-18T07:11:41;15.57;;;4.65;;
75165;SDS011;63747;48.042;10.088;2022-10-18T07:14:42;9.43;;;5.50;;
75165;SDS011;63747;48.042;10.088;2022-10-18T07:17:45;14.73;;;5.32;;
75165;SDS011;63747;48.042;10.088;2022-10-18T07:20:46;10.98;;;4.65;;
75165;SDS011;63747;48.042;10.088;2022-10-18T07:23:47;9.40;;;4.38;;
75165;SDS011;63747;48.042;10.088;2022-10-18T07:26:49;8.93;;;4.32;;
75165;SDS011;63747;48.042;10.088;2022-10-18T07:29:49;7.97;;;4.45;;
75165;SDS011;63747;48.042;10.088;2022-10-18T07:32:50;12.68;;;4.40;;
75165;SDS011;63747;48.042;10.088;2022-10-18T07:35:51;9.95;;;4.20;;
75165;SDS011;63747;48.042;10.088;2022-10-18T07:38:52;6.60;;;4.20;;
75165;SDS011;63747;48.042;10.088;2022-10-18T07:41:53;9.35;;;4.80;;
75165;SDS011;63747;48.042;10.088;2022-10-18T07:44:53;8.23;;;4.60;;
75165;SDS011;63747;48.042;10.088;2022-10-18T07:47:55;8.55;;;4.40;;
75165;SDS011;63747;48.042;10.088;2022-10-18T07:50:56;10.65;;;4.97;;
75165;SDS011;63747;48.042;10.088;2022-10-18T07:53:59;11.30;;;4.47;;
75165;SDS011;63747;48.042;10.088;2022-10-18T07:56:59;10.38;;;3.97;;
75165;SDS011;63747;48.042;10.088;2022-10-18T08:00:00;11.23;;;4.35;;
75165;SDS011;63747;48.042;10.088;2022-10-18T08:03:01;8.88;;;3.75;;
75165;SDS011;63747;48.042;10.088;2022-10-18T08:06:02;7.32;;;3.45;;
75165;SDS011;63747;48.042;10.088;2022-10-18T08:09:04;7.20;;;3.63;;
75165;SDS011;63747;48.042;10.088;2022-10-18T08:12:05;6.53;;;3.17;;
75165;SDS011;63747;48.042;10.088;2022-10-18T08:15:06;7.05;;;3.33;;
75165;SDS011;63747;48.042;10.088;2022-10-18T08:18:07;5.65;;;2.92;;
75165;SDS011;63747;48.042;10.088;2022-10-18T08:21:09;6.15;;;3.33;;
75165;SDS011;63747;48.042;10.088;2022-10-18T08:24:12;5.38;;;2.90;;
75165;SDS011;63747;48.042;10.088;2022-10-18T08:27:12;7.05;;;3.40;;
75165;SDS011;63747;48.042;10.088;2022-10-18T08:30:13;4.63;;;3.03;;
75165;SDS011;63747;48.042;10.088;2022-10-18T08:33:14;6.22;;;3.10;;
75165;SDS011;63747;48.042;10.088;2022-10-18T08:36:17;7.28;;;3.70;;
75165;SDS011;63747;48.042;10.088;2022-10-18T08:39:18;5.88;;;3.50;;
75165;SDS011;63747;48.042;10.088;2022-10-18T08:45:22;6.85;;;3.45;;
75165;SDS011;63747;48.042;10.088;2022-10-18T08:48:38;5.60;;;3.60;;
75165;SDS011;63747;48.042;10.088;2022-10-18T08:51:44;5.95;;;3.35;;
75165;SDS011;63747;48.042;10.088;2022-10-18T08:54:53;4.88;;;3.40;;
75165;SDS011;63747;48.042;10.088;2022-10-18T08:58:01;7.28;;;3.05;;
75165;SDS011;63747;48.042;10.088;2022-10-18T09:14:18;5.80;;;3.67;;
75165;SDS011;63747;48.042;10.088;2022-10-18T09:27:49;7.85;;;3.47;;
75165;SDS011;63747;48.042;10.088;2022-10-18T09:34:50;4.82;;;3.08;;
75165;SDS011;63747;48.042;10.088;2022-10-18T09:38:03;6.22;;;3.17;;
75165;SDS011;63747;48.042;10.088;2022-10-18T09:44:43;7.97;;;3.40;;
75165;SDS011;63747;48.042;10.088;2022-10-18T09:48:11;7.03;;;3.10;;
75165;SDS011;63747;48.042;10.088;2022-10-18T09:55:29;7.20;;;2.80;;
75165;SDS011;63747;48.042;10.088;2022-10-18T09:58:47;6.95;;;2.95;;
75165;SDS011;63747;48.042;10.088;2022-10-18T10:01:50;6.20;;;2.40;;
75165;SDS011;63747;48.042;10.088;2022-10-18T10:11:52;5.05;;;2.50;;
75165;SDS011;63747;48.042;10.088;2022-10-18T10:18:51;4.53;;;2.80;;
75165;SDS011;63747;48.042;10.088;2022-10-18T10:21:54;4.72;;;2.90;;
75165;SDS011;63747;48.042;10.088;2022-10-18T10:24:58;4.30;;;2.75;;
75165;SDS011;63747;48.042;10.088;2022-10-18T10:35:00;6.28;;;2.60;;
75165;SDS011;63747;48.042;10.088;2022-10-18T10:44:59;7.35;;;2.50;;
75165;SDS011;63747;48.042;10.088;2022-10-18T10:51:59;6.50;;;2.83;;
75165;SDS011;63747;48.042;10.088;2022-10-18T10:55:02;5.38;;;2.33;;
75165;SDS011;63747;48.042;10.088;2022-10-18T10:58:04;4.97;;;2.47;;
75165;SDS011;63747;48.042;10.088;2022-10-18T11:01:19;8.88;;;2.60;;
75165;SDS011;63747;48.042;10.088;2022-10-18T11:07:40;6.10;;;2.67;;
75165;SDS011;63747;48.042;10.088;2022-10-18T11:14:20;7.13;;;2.70;;
75165;SDS011;63747;48.042;10.088;2022-10-18T11:17:27;5.63;;;2.28;;
75165;SDS011;63747;48.042;10.088;2022-10-18T11:20:34;4.80;;;2.60;;
75165;SDS011;63747;48.042;10.088;2022-10-18T11:23:40;9.30;;;2.88;;
75165;SDS011;63747;48.042;10.088;2022-10-18T11:40:41;4.47;;;2.72;;
75165;SDS011;63747;48.042;10.088;2022-10-18T11:46:55;4.57;;;2.50;;
75165;SDS011;63747;48.042;10.088;2022-10-18T11:57:37;6.88;;;2.58;;
75165;SDS011;63747;48.042;10.088;2022-10-18T12:00:42;6.45;;;2.42;;
75165;SDS011;63747;48.042;10.088;2022-10-18T12:14:56;5.75;;;2.30;;
75165;SDS011;63747;48.042;10.088;2022-10-18T12:18:06;7.72;;;2.40;;
75165;SDS011;63747;48.042;10.088;2022-10-18T12:21:16;11.60;;;2.40;;
75165;SDS011;63747;48.042;10.088;2022-10-18T12:24:23;6.53;;;2.50;;
75165;SDS011;63747;48.042;10.088;2022-10-18T12:27:32;8.27;;;2.28;;
75165;SDS011;63747;48.042;10.088;2022-10-18T12:30:48;5.78;;;2.22;;
75165;SDS011;63747;48.042;10.088;2022-10-18T12:34:02;5.63;;;2.45;;
75165;SDS011;63747;48.042;10.088;2022-10-18T12:44:33;5.93;;;2.40;;
75165;SDS011;63747;48.042;10.088;2022-10-18T12:51:32;10.23;;;2.50;;
75165;SDS011;63747;48.042;10.088;2022-10-18T12:54:34;9.93;;;2.35;;
75165;SDS011;63747;48.042;10.088;2022-10-18T13:04:48;7.95;;;2.55;;
75165;SDS011;63747;48.042;10.088;2022-10-18T13:07:49;7.50;;;2.47;;
75165;SDS011;63747;48.042;10.088;2022-10-18T13:15:20;6.20;;;2.33;;
75165;SDS011;63747;48.042;10.088;2022-10-18T13:36:58;6.15;;;2.65;;
75165;SDS011;63747;48.042;10.088;2022-10-18T13:44:22;8.43;;;2.67;;
75165;SDS011;63747;48.042;10.088;2022-10-18T13:47:37;12.38;;;2.42;;
75165;SDS011;63747;48.042;10.088;2022-10-18T13:50:37;8.68;;;2.30;;
75165;SDS011;63747;48.042;10.088;2022-10-18T14:01:30;11.50;;;2.30;;
75165;SDS011;63747;48.042;10.088;2022-10-18T14:08:22;5.90;;;2.28;;
75165;SDS011;63747;48.042;10.088;2022-10-18T14:18:05;5.20;;;2.50;;
75165;SDS011;63747;48.042;10.088;2022-10-18T14:21:21;12.02;;;3.35;;
75165;SDS011;63747;48.042;10.088;2022-10-18T14:24:28;13.07;;;5.45;;
75165;SDS011;63747;48.042;10.088;2022-10-18T14:27:30;10.45;;;5.00;;
75165;SDS011;63747;48.042;10.088;2022-10-18T14:30:32;9.13;;;3.30;;
75165;SDS011;63747;48.042;10.088;2022-10-18T14:33:38;9.88;;;3.92;;
75165;SDS011;63747;48.042;10.088;2022-10-18T14:36:42;9.25;;;3.22;;
75165;SDS011;63747;48.042;10.088;2022-10-18T14:39:46;11.10;;;3.10;;
75165;SDS011;63747;48.042;10.088;2022-10-18T14:42:47;8.18;;;2.65;;
75165;SDS011;63747;48.042;10.088;2022-10-18T14:49:17;7.80;;;2.58;;
75165;SDS011;63747;48.042;10.088;2022-10-18T14:52:19;7.53;;;2.50;;
75165;SDS011;63747;48.042;10.088;2022-10-18T14:59:25;11.23;;;2.90;;
75165;SDS011;63747;48.042;10.088;2022-10-18T15:06:26;6.32;;;2.10;;
75165;SDS011;63747;48.042;10.088;2022-10-18T15:13:24;6.80;;;2.42;;
75165;SDS011;63747;48.042;10.088;2022-10-18T15:16:29;8.60;;;2.55;;
75165;SDS011;63747;48.042;10.088;2022-10-18T15:23:28;10.77;;;2.40;;
75165;SDS011;63747;48.042;10.088;2022-10-18T15:26:31;5.93;;;2.38;;
75165;SDS011;63747;48.042;10.088;2022-10-18T15:29:34;12.20;;;2.70;;
75165;SDS011;63747;48.042;10.088;2022-10-18T15:32:36;7.63;;;2.47;;
75165;SDS011;63747;48.042;10.088;2022-10-18T15:39:36;8.50;;;2.40;;
75165;SDS011;63747;48.042;10.088;2022-10-18T15:42:36;10.38;;;2.80;;
75165;SDS011;63747;48.042;10.088;2022-10-18T16:00:38;9.32;;;2.75;;
75165;SDS011;63747;48.042;10.088;2022-10-18T16:03:38;9.88;;;2.67;;
75165;SDS011;63747;48.042;10.088;2022-10-18T16:10:47;7.13;;;2.90;;
75165;SDS011;63747;48.042;10.088;2022-10-18T16:13:49;8.63;;;3.20;;
75165;SDS011;63747;48.042;10.088;2022-10-18T16:16:53;10.18;;;3.40;;
75165;SDS011;63747;48.042;10.088;2022-10-18T16:19:55;9.88;;;3.72;;
75165;SDS011;63747;48.042;10.088;2022-10-18T16:22:56;12.90;;;3.70;;
75165;SDS011;63747;48.042;10.088;2022-10-18T16:25:57;13.55;;;3.42;;
75165;SDS011;63747;48.042;10.088;2022-10-18T16:31:59;19.50;;;6.53;;
75165;SDS011;63747;48.042;10.088;2022-10-18T16:35:00;10.88;;;4.10;;
75165;SDS011;63747;48.042;10.088;2022-10-18T16:41:02;10.70;;;4.07;;
75165;SDS011;63747;48.042;10.088;2022-10-18T16:44:04;10.77;;;4.00;;
75165;SDS011;63747;48.042;10.088;2022-10-18T16:50:05;10.83;;;3.30;;
75165;SDS011;63747;48.042;10.088;2022-10-18T16:53:12;12.63;;;5.18;;
75165;SDS011;63747;48.042;10.088;2022-10-18T16:56:14;12.60;;;3.70;;
75165;SDS011;63747;48.042;10.088;2022-10-18T16:59:23;10.18;;;3.90;;
75165;SDS011;63747;48.042;10.088;2022-10-18T17:02:26;13.60;;;4.25;;
75165;SDS011;63747;48.042;10.088;2022-10-18T17:08:34;8.35;;;2.97;;
75165;SDS011;63747;48.042;10.088;2022-10-18T17:14:36;9.07;;;3.30;;
75165;SDS011;63747;48.042;10.088;2022-10-18T17:20:47;12.13;;;3.80;;
75165;SDS011;63747;48.042;10.088;2022-10-18T17:23:49;9.07;;;3.85;;
75165;SDS011;63747;48.042;10.088;2022-10-18T17:29:55;6.53;;;3.70;;
75165;SDS011;63747;48.042;10.088;2022-10-18T17:32:56;11.20;;;3.92;;
75165;SDS011;63747;48.042;10.088;2022-10-18T17:39:11;9.57;;;4.13;;
75165;SDS011;63747;48.042;10.088;2022-10-18T17:54:02;11.65;;;4.32;;
75165;SDS011;63747;48.042;10.088;2022-10-18T17:57:02;7.47;;;4.65;;
75165;SDS011;63747;48.042;10.088;2022-10-18T18:04:00;9.05;;;4.57;;
75165;SDS011;63747;48.042;10.088;2022-10-18T18:10:58;11.07;;;4.75;;
75165;SDS011;63747;48.042;10.088;2022-10-18T18:17:55;9.57;;;4.38;;
75165;SDS011;63747;48.042;10.088;2022-10-18T18:24:53;10.85;;;4.60;;
75165;SDS011;63747;48.042;10.088;2022-10-18T18:27:54;15.52;;;5.07;;
75165;SDS011;63747;48.042;10.088;2022-10-18T18:30:54;8.43;;;4.47;;
75165;SDS011;63747;48.042;10.088;2022-10-18T18:33:56;7.63;;;4.22;;
75165;SDS011;63747;48.042;10.088;2022-10-18T18:41:07;10.40;;;5.00;;
75165;SDS011;63747;48.042;10.088;2022-10-18T18:44:15;8.25;;;4.70;;
75165;SDS011;63747;48.042;10.088;2022-10-18T18:51:15;11.43;;;5.22;;
75165;SDS011;63747;48.042;10.088;2022-10-18T18:54:18;9.07;;;5.50;;
75165;SDS011;63747;48.042;10.088;2022-10-18T19:01:18;9.02;;;5.80;;
75165;SDS011;63747;48.042;10.088;2022-10-18T19:08:17;9.15;;;4.95;;
75165;SDS011;63747;48.042;10.088;2022-10-18T19:15:15;12.18;;;6.00;;
75165;SDS011;63747;48.042;10.088;2022-10-18T19:22:13;9.65;;;6.32;;
75165;SDS011;63747;48.042;10.088;2022-10-18T19:29:12;11.07;;;6.60;;
75165;SDS011;63747;48.042;10.088;2022-10-18T19:32:21;11.43;;;6.47;;
75165;SDS011;63747;48.042;10.088;2022-10-18T19:39:20;10.38;;;7.00;;
75165;SDS011;63747;48.042;10.088;2022-10-18T19:46:22;13.93;;;9.10;;
75165;SDS011;63747;48.042;10.088;2022-10-18T19:49:23;10.55;;;7.72;;
75165;SDS011;63747;48.042;10.088;2022-10-18T19:52:25;16.00;;;9.75;;
75165;SDS011;63747;48.042;10.088;2022-10-18T19:59:24;21.88;;;13.43;;
75165;SDS011;63747;48.042;10.088;2022-10-18T20:02:25;23.60;;;14.63;;
75165;SDS011;63747;48.042;10.088;2022-10-18T20:05:25;23.45;;;15.88;;
75165;SDS011;63747;48.042;10.088;2022-10-18T20:12:24;14.27;;;10.48;;
75165;SDS011;63747;48.042;10.088;2022-10-18T20:15:24;19.13;;;11.00;;
75165;SDS011;63747;48.042;10.088;2022-10-18T20:22:23;28.25;;;17.30;;
75165;SDS011;63747;48.042;10.088;2022-10-18T20:25:24;27.52;;;19.33;;
75165;SDS011;63747;48.042;10.088;2022-10-18T20:28:24;29.42;;;20.88;;
75165;SDS011;63747;48.042;10.088;2022-10-18T20:35:04;23.30;;;14.00;;
75165;SDS011;63747;48.042;10.088;2022-10-18T20:38:05;21.67;;;11.85;;
75165;SDS011;63747;48.042;10.088;2022-10-18T20:45:03;15.40;;;8.85;;
75165;SDS011;63747;48.042;10.088;2022-10-18T20:52:02;9.32;;;7.07;;
75165;SDS011;63747;48.042;10.088;2022-10-18T20:55:05;9.25;;;6.55;;
75165;SDS011;63747;48.042;10.088;2022-10-18T21:04:47;16.17;;;12.43;;
75165;SDS011;63747;48.042;10.088;2022-10-18T21:07:48;19.33;;;11.23;;
75165;SDS011;63747;48.042;10.088;2022-10-18T21:10:50;16.13;;;12.10;;
75165;SDS011;63747;48.042;10.088;2022-10-18T21:13:51;11.30;;;9.55;;
75165;SDS011;63747;48.042;10.088;2022-10-18T21:20:34;11.18;;;7.95;;
75165;SDS011;63747;48.042;10.088;2022-10-18T21:27:32;13.40;;;9.80;;
75165;SDS011;63747;48.042;10.088;2022-10-18T21:33:34;13.55;;;10.27;;
75165;SDS011;63747;48.042;10.088;2022-10-18T21:36:35;14.55;;;10.52;;
75165;SDS011;63747;48.042;10.088;2022-10-18T21:39:37;14.93;;;9.50;;
75165;SDS011;63747;48.042;10.088;2022-10-18T21:42:38;13.23;;;9.50;;
75165;SDS011;63747;48.042;10.088;2022-10-18T21:45:39;16.17;;;9.13;;
75165;SDS011;63747;48.042;10.088;2022-10-18T21:48:42;14.68;;;11.07;;
75165;SDS011;63747;48.042;10.088;2022-10-18T21:51:45;12.68;;;9.15;;
75165;SDS011;63747;48.042;10.088;2022-10-18T21:54:47;11.20;;;7.32;;
75165;SDS011;63747;48.042;10.088;2022-10-18T21:57:48;16.50;;;8.32;;
75165;SDS011;63747;48.042;10.088;2022-10-18T22:00:49;10.45;;;7.97;;
75165;SDS011;63747;48.042;10.088;2022-10-18T22:07:46;12.18;;;6.78;;
75165;SDS011;63747;48.042;10.088;2022-10-18T22:14:39;9.27;;;6.38;;
75165;SDS011;63747;48.042;10.088;2022-10-18T22:17:40;12.70;;;5.90;;
75165;SDS011;63747;48.042;10.088;2022-10-18T22:24:38;9.20;;;5.65;;
75165;SDS011;63747;48.042;10.088;2022-10-18T22:27:39;7.18;;;4.78;;
75165;SDS011;63747;48.042;10.088;2022-10-18T22:30:41;4.75;;;3.15;;
75165;SDS011;63747;48.042;10.088;2022-10-18T22:41:35;8.43;;;4.63;;
75165;SDS011;63747;48.042;10.088;2022-10-18T22:44:36;4.55;;;4.00;;
75165;SDS011;63747;48.042;10.088;2022-10-18T22:47:37;6.22;;;3.70;;
75165;SDS011;63747;48.042;10.088;2022-10-18T22:50:49;14.60;;;5.30;;
75165;SDS011;63747;48.042;10.088;2022-10-18T22:53:50;61.03;;;8.18;;
75165;SDS011;63747;48.042;10.088;2022-10-18T22:56:51;132.80;;;10.38;;
75165;SDS011;63747;48.042;10.088;2022-10-18T22:59:52;74.10;;;10.32;;
75165;SDS011;63747;48.042;10.088;2022-10-18T23:02:53;25.98;;;9.88;;
75165;SDS011;63747;48.042;10.088;2022-10-18T23:05:54;50.50;;;11.57;;
75165;SDS011;63747;48.042;10.088;2022-10-18T23:08:55;27.08;;;10.13;;
75165;SDS011;63747;48.042;10.088;2022-10-18T23:11:58;16.42;;;9.13;;
75165;SDS011;63747;48.042;10.088;2022-10-18T23:14:58;15.98;;;8.23;;
75165;SDS011;63747;48.042;10.088;2022-10-18T23:17:59;15.48;;;7.40;;
75165;SDS011;63747;48.042;10.088;2022-10-18T23:21:05;14.02;;;6.90;;
75165;SDS011;63747;48.042;10.088;2022-10-18T23:24:07;13.82;;;6.60;;
75165;SDS011;63747;48.042;10.088;2022-10-18T23:27:08;8.77;;;5.50;;
75165;SDS011;63747;48.042;10.088;2022-10-18T23:33:49;6.32;;;5.28;;
75165;SDS011;63747;48.042;10.088;2022-10-18T23:36:51;6.95;;;4.53;;
75165;SDS011;63747;48.042;10.088;2022-10-18T23:39:52;7.85;;;5.20;;
75165;SDS011;63747;48.042;10.088;2022-10-18T23:42:53;9.15;;;4.28;;
75165;SDS011;63747;48.042;10.088;2022-10-18T23:46:10;16.58;;;5.60;;
75165;SDS011;63747;48.042;10.088;2022-10-18T23:49:12;10.50;;;5.95;;
75165;SDS011;63747;48.042;10.088;2022-10-18T23:52:13;10.48;;;5.63;;
75165;SDS011;63747;48.042;10.088;2022-10-18T23:55:14;8.50;;;5.35;;
75165;SDS011;63747;48.042;10.088;2022-10-18T23:58:14;18.30;;;6.78;;
